Time;durP1;ratioP1;P1;durP2;ratioP2;P2;SDS_P1;SDS_P2;PMS_P1;PMS_P2;Temp;Humidity;BMP_temperature;BMP_pressure;BME280_temperature;BME280_humidity;BME280_pressure;Samples;Min_cycle;Max_cycle;Signal;HPM_P1;HPM_P2
2022/10/14 00:01:07;;;;;;;22.63;12.63;;;12.90;99.90;;;;;;5067607;28;20040;-56
2022/10/14 00:03:33;;;;;;;20.00;11.88;;;12.90;99.90;;;;;;5064735;28;20041;-56
2022/10/14 00:06:02;;;;;;;18.83;11.50;;;12.90;99.90;;;;;;5070722;28;20036;-54
2022/10/14 00:08:27;;;;;;;25.23;12.88;;;13.00;99.90;;;;;;5068946;28;20058;-55
2022/10/14 00:10:53;;;;;;;23.15;12.75;;;13.00;99.90;;;;;;5066626;28;20521;-54
2022/10/14 00:13:18;;;;;;;24.02;13.18;;;13.00;99.90;;;;;;5070018;28;20097;-52
2022/10/14 00:15:44;;;;;;;26.08;13.40;;;12.90;99.90;;;;;;5066925;28;20178;-59
2022/10/14 00:18:09;;;;;;;30.65;15.35;;;12.90;99.90;;;;;;5069048;28;20025;-53
2022/10/14 00:20:35;;;;;;;27.85;14.02;;;12.80;99.90;;;;;;5069539;28;20035;-56
2022/10/14 00:23:01;;;;;;;24.02;14.18;;;12.90;99.90;;;;;;5070849;28;20490;-55
2022/10/14 00:25:27;;;;;;;25.75;14.60;;;12.90;99.90;;;;;;5067329;28;20032;-58
2022/10/14 00:27:53;;;;;;;28.90;16.23;;;12.80;99.90;;;;;;5069673;28;20107;-54
2022/10/14 00:30:18;;;;;;;35.38;15.05;;;12.80;99.90;;;;;;5066016;28;20101;-54
2022/10/14 00:32:44;;;;;;;23.95;14.05;;;12.80;99.90;;;;;;5070389;28;20036;-56
2022/10/14 00:35:10;;;;;;;20.75;13.00;;;12.80;99.90;;;;;;5066763;28;20028;-56
2022/10/14 00:37:36;;;;;;;26.40;14.85;;;12.90;99.90;;;;;;5069992;28;20036;-60
2022/10/14 00:40:02;;;;;;;32.17;14.50;;;12.90;99.90;;;;;;5070686;28;20036;-55
2022/10/14 00:42:32;;;;;;;27.25;14.52;;;12.90;99.90;;;;;;5069241;28;20029;-59
2022/10/14 00:45:05;;;;;;;23.40;13.70;;;12.80;99.90;;;;;;5068375;28;20021;-57
2022/10/14 00:47:31;;;;;;;25.67;14.52;;;12.80;99.90;;;;;;5068877;28;20056;-55
2022/10/14 00:49:58;;;;;;;30.35;14.82;;;12.80;99.90;;;;;;5070113;28;20024;-57
2022/10/14 00:52:24;;;;;;;30.50;15.50;;;12.80;99.90;;;;;;5065871;28;20433;-56
2022/10/14 00:54:54;;;;;;;25.77;14.73;;;12.80;99.90;;;;;;5067960;28;20028;-54
2022/10/14 00:57:21;;;;;;;27.42;14.65;;;12.80;99.90;;;;;;5068906;28;20021;-56
2022/10/14 00:59:48;;;;;;;30.95;15.27;;;12.80;99.90;;;;;;5069668;28;20035;-55
2022/10/14 01:02:13;;;;;;;29.25;15.80;;;12.80;99.90;;;;;;5062927;28;20107;-55
2022/10/14 01:04:40;;;;;;;27.02;15.30;;;12.80;99.90;;;;;;5069219;28;20103;-56
2022/10/14 01:07:27;;;;;;;28.95;13.38;;;12.80;99.90;;;;;;5067464;28;20078;-55
2022/10/14 01:10:12;;;;;;;35.20;14.05;;;12.80;99.90;;;;;;5050683;28;20035;-58
2022/10/14 01:12:40;;;;;;;27.90;14.02;;;12.80;99.90;;;;;;5066542;28;20020;-55
2022/10/14 01:15:19;;;;;;;33.38;13.73;;;12.80;99.90;;;;;;5064677;28;20043;-60
2022/10/14 01:17:53;;;;;;;24.52;13.90;;;12.80;99.90;;;;;;5063763;28;20502;-53
2022/10/14 01:20:48;;;;;;;25.42;13.70;;;12.80;99.90;;;;;;5067593;28;20036;-57
2022/10/14 01:23:49;;;;;;;27.77;13.35;;;12.80;99.90;;;;;;5069041;28;20032;-57
2022/10/14 01:26:42;;;;;;;30.80;14.07;;;12.80;99.90;;;;;;5068680;28;20074;-54
2022/10/14 01:29:22;;;;;;;33.03;14.57;;;12.80;99.90;;;;;;5068772;28;20029;-55
2022/10/14 01:31:58;;;;;;;28.50;14.35;;;12.80;99.90;;;;;;5064900;28;20078;-59
2022/10/14 01:34:30;;;;;;;29.98;15.07;;;12.80;99.90;;;;;;5067674;28;20044;-54
2022/10/14 01:37:03;;;;;;;29.92;14.45;;;12.80;99.90;;;;;;5067941;28;20387;-55
2022/10/14 01:39:33;;;;;;;31.15;15.80;;;12.90;99.90;;;;;;5061247;28;20441;-55
2022/10/14 01:42:06;;;;;;;33.05;16.20;;;12.80;99.90;;;;;;5068080;28;20402;-56
2022/10/14 01:44:34;;;;;;;34.30;16.73;;;12.80;99.90;;;;;;5067409;28;20016;-55
2022/10/14 01:47:01;;;;;;;38.63;16.02;;;12.80;99.90;;;;;;5065073;28;20701;-54
2022/10/14 01:49:34;;;;;;;28.00;15.48;;;12.80;99.90;;;;;;5066400;28;20402;-55
2022/10/14 01:52:26;;;;;;;30.65;14.88;;;12.80;99.90;;;;;;5068724;28;20029;-58
2022/10/14 01:54:55;;;;;;;35.50;16.13;;;12.90;99.90;;;;;;5068355;28;20028;-55
2022/10/14 01:57:27;;;;;;;35.20;16.27;;;12.90;99.90;;;;;;5068022;28;20032;-58
2022/10/14 01:59:54;;;;;;;34.60;16.63;;;12.90;99.90;;;;;;5062409;28;20118;-59
2022/10/14 02:02:20;;;;;;;38.45;17.88;;;12.90;99.90;;;;;;5066900;28;20021;-53
2022/10/14 02:04:46;;;;;;;33.63;17.15;;;12.90;99.90;;;;;;5068882;28;20042;-59
2022/10/14 02:07:19;;;;;;;36.50;16.50;;;12.90;99.90;;;;;;5069428;28;20031;-57
2022/10/14 02:10:15;;;;;;;34.08;16.08;;;12.90;99.90;;;;;;5067173;28;20498;-55
2022/10/14 02:12:59;;;;;;;32.50;15.35;;;12.90;99.90;;;;;;5063960;28;20024;-52
2022/10/14 02:16:00;;;;;;;33.20;15.70;;;12.90;99.90;;;;;;5064257;28;20025;-53
2022/10/14 02:18:54;;;;;;;34.45;16.63;;;13.00;99.90;;;;;;5060801;28;20800;-55
2022/10/14 02:21:28;;;;;;;29.48;15.30;;;13.00;99.90;;;;;;5067332;28;20082;-54
2022/10/14 02:24:06;;;;;;;28.67;16.70;;;13.00;99.90;;;;;;5051877;28;20039;-56
2022/10/14 02:26:33;;;;;;;30.25;15.95;;;13.00;99.90;;;;;;5066733;28;20048;-52
2022/10/14 02:29:00;;;;;;;30.75;14.52;;;13.00;99.90;;;;;;5063594;28;20032;-54
2022/10/14 02:31:27;;;;;;;23.45;13.57;;;13.00;99.90;;;;;;5062152;28;20035;-52
2022/10/14 02:33:59;;;;;;;31.25;14.85;;;13.00;99.90;;;;;;5058942;28;20021;-57
2022/10/14 02:36:27;;;;;;;30.70;15.65;;;13.00;99.90;;;;;;5062170;28;20024;-53
2022/10/14 02:38:56;;;;;;;33.33;16.33;;;13.00;99.90;;;;;;5055801;28;20021;-52
2022/10/14 02:41:24;;;;;;;26.67;15.05;;;13.00;99.90;;;;;;5052694;28;20024;-54
2022/10/14 02:43:50;;;;;;;29.13;16.27;;;13.00;99.90;;;;;;5064081;28;20036;-54
2022/10/14 02:46:19;;;;;;;33.28;15.48;;;13.00;99.90;;;;;;5066641;28;20367;-55
2022/10/14 02:48:44;;;;;;;40.33;15.65;;;13.00;99.90;;;;;;5068393;28;20378;-60
2022/10/14 02:51:10;;;;;;;33.42;16.77;;;13.00;99.90;;;;;;5065707;28;20054;-56
2022/10/14 02:53:35;;;;;;;31.08;15.77;;;13.00;99.90;;;;;;5069455;28;20624;-53
2022/10/14 02:56:01;;;;;;;29.67;15.30;;;13.00;99.90;;;;;;5067692;28;20051;-56
2022/10/14 02:58:26;;;;;;;25.73;14.70;;;13.00;99.90;;;;;;5066482;28;20036;-57
2022/10/14 03:00:52;;;;;;;30.65;16.35;;;13.00;99.90;;;;;;5063437;28;20031;-57
2022/10/14 03:03:17;;;;;;;33.05;15.40;;;13.00;99.90;;;;;;5067699;28;20486;-53
2022/10/14 03:05:43;;;;;;;31.65;15.55;;;13.00;99.90;;;;;;5066624;28;20036;-56
2022/10/14 03:08:09;;;;;;;31.55;14.73;;;13.00;99.90;;;;;;5067057;28;20093;-54
2022/10/14 03:10:35;;;;;;;25.45;14.57;;;13.00;99.90;;;;;;5065947;28;20120;-58
2022/10/14 03:13:00;;;;;;;29.48;14.90;;;13.00;99.90;;;;;;5067025;28;20111;-53
2022/10/14 03:15:26;;;;;;;29.30;14.98;;;13.00;99.90;;;;;;5069967;28;20526;-55
2022/10/14 03:17:51;;;;;;;31.33;15.45;;;13.00;99.90;;;;;;5071776;28;20095;-57
2022/10/14 03:20:17;;;;;;;37.45;15.27;;;13.00;99.90;;;;;;5070893;28;20266;-55
2022/10/14 03:22:42;;;;;;;28.77;14.95;;;13.00;99.90;;;;;;5053040;28;20043;-54
2022/10/14 03:25:08;;;;;;;32.83;14.82;;;13.00;99.90;;;;;;5071013;28;20032;-59
2022/10/14 03:27:34;;;;;;;36.10;15.00;;;13.00;99.90;;;;;;5069393;28;20043;-54
2022/10/14 03:29:59;;;;;;;32.33;14.77;;;13.00;99.90;;;;;;5067765;28;20056;-55
2022/10/14 03:32:25;;;;;;;21.92;12.93;;;13.00;99.90;;;;;;5068751;28;20017;-53
2022/10/14 03:34:50;;;;;;;24.40;13.98;;;13.00;99.90;;;;;;5054808;28;20122;-54
2022/10/14 03:37:16;;;;;;;25.17;14.73;;;13.00;99.90;;;;;;5071337;28;20110;-58
2022/10/14 03:39:41;;;;;;;25.35;14.15;;;13.10;99.90;;;;;;5073537;28;20070;-54
2022/10/14 03:42:07;;;;;;;29.90;13.43;;;13.00;99.90;;;;;;5068258;28;20415;-59
2022/10/14 03:44:32;;;;;;;30.52;13.27;;;13.10;99.90;;;;;;5065441;28;20065;-55
2022/10/14 03:46:58;;;;;;;29.55;13.68;;;13.10;99.90;;;;;;5068879;28;20024;-52
2022/10/14 03:49:24;;;;;;;28.85;13.02;;;13.10;99.90;;;;;;5069834;28;20033;-55
2022/10/14 03:51:49;;;;;;;22.38;12.70;;;13.00;99.90;;;;;;5068544;28;20029;-57
2022/10/14 03:54:15;;;;;;;24.80;12.38;;;13.10;99.90;;;;;;5070889;28;20036;-55
2022/10/14 03:56:40;;;;;;;25.38;13.45;;;13.00;99.90;;;;;;5066783;28;20079;-58
2022/10/14 03:59:06;;;;;;;31.20;13.07;;;13.10;99.90;;;;;;5069152;28;20033;-55
2022/10/14 04:01:32;;;;;;;21.45;12.73;;;13.10;99.90;;;;;;5067883;28;20068;-52
2022/10/14 04:03:58;;;;;;;27.25;13.70;;;13.10;99.90;;;;;;5070468;28;20156;-55
2022/10/14 04:06:23;;;;;;;21.83;11.60;;;13.10;99.90;;;;;;5071314;28;20032;-61
2022/10/14 04:08:49;;;;;;;25.17;12.77;;;13.10;99.90;;;;;;5068264;28;20549;-60
2022/10/14 04:11:16;;;;;;;21.67;12.20;;;13.10;99.90;;;;;;5064171;28;20033;-52
2022/10/14 04:13:41;;;;;;;21.38;11.90;;;13.10;99.90;;;;;;5070925;28;20074;-58
2022/10/14 04:16:09;;;;;;;21.00;12.13;;;13.20;99.90;;;;;;5066848;28;20595;-55
2022/10/14 04:18:35;;;;;;;29.80;13.52;;;13.20;99.90;;;;;;5071428;28;20029;-57
2022/10/14 04:21:03;;;;;;;19.52;12.32;;;13.10;99.90;;;;;;5069928;28;20028;-57
2022/10/14 04:23:28;;;;;;;18.15;10.15;;;13.10;99.90;;;;;;5069929;28;20029;-52
2022/10/14 04:25:54;;;;;;;21.30;11.60;;;13.10;99.90;;;;;;5065581;28;20543;-55
2022/10/14 04:28:20;;;;;;;18.73;11.38;;;13.10;99.90;;;;;;5069488;28;20046;-56
2022/10/14 04:30:45;;;;;;;23.27;10.65;;;13.10;99.90;;;;;;5067081;28;20501;-56
2022/10/14 04:33:11;;;;;;;18.65;10.00;;;13.10;99.90;;;;;;5069903;28;20029;-61
2022/10/14 04:35:36;;;;;;;17.95;10.07;;;13.10;99.90;;;;;;5064725;28;20050;-56
2022/10/14 04:38:02;;;;;;;20.55;10.80;;;13.10;99.90;;;;;;5069475;28;20032;-57
2022/10/14 04:40:27;;;;;;;18.85;11.55;;;13.10;99.90;;;;;;5065037;28;20035;-56
2022/10/14 04:42:57;;;;;;;15.73;10.63;;;13.10;99.90;;;;;;5070069;28;20109;-57
2022/10/14 04:45:24;;;;;;;19.58;9.88;;;13.10;99.90;;;;;;5065993;28;20067;-56
2022/10/14 04:47:50;;;;;;;14.93;9.50;;;13.10;99.90;;;;;;5069169;28;20021;-56
2022/10/14 04:50:17;;;;;;;17.85;10.35;;;13.20;99.90;;;;;;5069781;28;20027;-56
2022/10/14 04:52:42;;;;;;;22.65;10.93;;;13.20;99.90;;;;;;5068612;28;20029;-57
2022/10/14 04:55:08;;;;;;;18.73;9.55;;;13.10;99.90;;;;;;5067347;28;20090;-55
2022/10/14 04:57:34;;;;;;;16.40;9.50;;;13.10;99.90;;;;;;5068367;28;20086;-59
2022/10/14 04:59:59;;;;;;;21.60;8.40;;;13.10;99.90;;;;;;5070018;28;20052;-55
2022/10/14 05:02:25;;;;;;;25.70;8.55;;;13.10;99.90;;;;;;5068157;28;20024;-58
2022/10/14 05:04:50;;;;;;;18.88;9.35;;;13.10;99.90;;;;;;5067262;28;20029;-55
2022/10/14 05:07:16;;;;;;;14.35;9.25;;;13.10;99.90;;;;;;5066734;28;20052;-57
2022/10/14 05:09:41;;;;;;;14.52;9.02;;;13.10;99.90;;;;;;5064235;28;20404;-55
2022/10/14 05:12:07;;;;;;;14.13;8.10;;;13.10;99.90;;;;;;5063841;28;20035;-55
2022/10/14 05:14:33;;;;;;;19.95;8.68;;;13.10;99.90;;;;;;5069553;28;20039;-56
2022/10/14 05:16:59;;;;;;;13.50;7.32;;;13.10;99.90;;;;;;5066471;28;20025;-55
2022/10/14 05:19:24;;;;;;;10.88;7.65;;;13.10;99.90;;;;;;5069657;28;20394;-56
2022/10/14 05:21:50;;;;;;;13.23;7.63;;;13.10;99.90;;;;;;5069269;28;20032;-54
2022/10/14 05:24:16;;;;;;;15.95;7.50;;;13.10;99.90;;;;;;5068366;28;20032;-58
2022/10/14 05:26:41;;;;;;;14.27;7.40;;;13.00;99.90;;;;;;5066872;28;20082;-57
2022/10/14 05:29:09;;;;;;;12.20;6.80;;;13.00;99.90;;;;;;5067938;28;20039;-54
2022/10/14 05:31:35;;;;;;;13.75;6.63;;;13.10;99.90;;;;;;5067795;28;20427;-57
2022/10/14 05:34:01;;;;;;;11.48;6.88;;;13.10;99.90;;;;;;5068596;28;20063;-54
2022/10/14 05:36:26;;;;;;;11.00;6.50;;;13.10;99.90;;;;;;5061492;28;20036;-56
2022/10/14 05:38:55;;;;;;;11.30;6.63;;;13.10;99.90;;;;;;5057453;28;20055;-56
2022/10/14 05:41:20;;;;;;;13.48;6.43;;;13.10;99.90;;;;;;5059037;28;20029;-54
2022/10/14 05:43:46;;;;;;;10.07;6.32;;;13.10;99.90;;;;;;5064732;28;20033;-57
2022/10/14 05:46:11;;;;;;;9.25;5.80;;;13.10;99.90;;;;;;5062378;28;20020;-52
2022/10/14 05:48:37;;;;;;;10.73;6.07;;;13.10;99.90;;;;;;5072327;28;20033;-54
2022/10/14 05:51:02;;;;;;;10.52;6.22;;;13.10;99.90;;;;;;5068250;28;20016;-54
2022/10/14 05:53:28;;;;;;;17.42;6.72;;;13.10;99.90;;;;;;5065115;28;20025;-58
2022/10/14 05:56:01;;;;;;;11.52;6.10;;;13.10;99.90;;;;;;5064213;28;20040;-56
2022/10/14 05:58:26;;;;;;;11.07;5.70;;;13.10;99.90;;;;;;5067137;28;20016;-54
2022/10/14 06:00:52;;;;;;;11.13;6.32;;;13.10;99.90;;;;;;5061899;28;20028;-52
2022/10/14 06:03:18;;;;;;;8.95;5.55;;;13.20;99.90;;;;;;5064629;28;20466;-56
2022/10/14 06:05:44;;;;;;;14.38;6.30;;;13.20;99.90;;;;;;5068646;28;20161;-53
2022/10/14 06:08:09;;;;;;;9.90;6.60;;;13.20;99.90;;;;;;5069942;28;20028;-56
2022/10/14 06:10:35;;;;;;;15.10;6.55;;;13.20;99.90;;;;;;5065183;28;20039;-57
2022/10/14 06:13:01;;;;;;;10.52;6.10;;;13.20;99.90;;;;;;5067098;28;20016;-55
2022/10/14 06:15:27;;;;;;;17.85;6.53;;;13.20;99.90;;;;;;5060125;28;20025;-56
2022/10/14 06:17:52;;;;;;;10.93;6.13;;;13.20;99.90;;;;;;5058279;28;20032;-53
2022/10/14 06:20:18;;;;;;;8.85;5.90;;;13.20;99.90;;;;;;5068167;28;20523;-53
2022/10/14 06:22:44;;;;;;;12.35;7.65;;;13.30;99.90;;;;;;5066961;28;20552;-56
2022/10/14 06:25:10;;;;;;;11.93;6.75;;;13.30;99.90;;;;;;5067707;28;20033;-55
2022/10/14 06:27:35;;;;;;;11.45;7.25;;;13.40;99.90;;;;;;5068334;28;20035;-56
2022/10/14 06:30:01;;;;;;;12.10;7.47;;;13.30;99.90;;;;;;5066497;28;20021;-55
2022/10/14 06:32:26;;;;;;;14.57;7.07;;;13.40;99.90;;;;;;5065673;28;20025;-59
2022/10/14 06:34:52;;;;;;;16.55;7.78;;;13.40;99.90;;;;;;5067488;28;20502;-55
2022/10/14 06:37:17;;;;;;;13.05;6.57;;;13.40;99.90;;;;;;5066834;28;20043;-56
2022/10/14 06:39:43;;;;;;;12.90;7.07;;;13.40;99.90;;;;;;5062546;28;20037;-58
2022/10/14 06:42:09;;;;;;;19.30;6.90;;;13.40;99.90;;;;;;5057483;28;20509;-57
2022/10/14 06:44:35;;;;;;;15.57;6.65;;;13.40;99.90;;;;;;5061929;28;20062;-55
2022/10/14 06:47:00;;;;;;;12.85;7.38;;;13.40;99.90;;;;;;5063103;28;20494;-53
2022/10/14 06:49:26;;;;;;;12.35;7.57;;;13.40;99.90;;;;;;5068998;28;20033;-56
2022/10/14 06:51:51;;;;;;;24.27;8.07;;;13.40;99.90;;;;;;5069728;28;20017;-58
2022/10/14 06:54:17;;;;;;;12.80;7.78;;;13.40;99.90;;;;;;5070967;28;20434;-57
2022/10/14 06:56:42;;;;;;;18.90;8.52;;;13.50;99.90;;;;;;5068088;28;20063;-56
2022/10/14 06:59:08;;;;;;;15.82;9.23;;;13.50;99.90;;;;;;5069409;28;20032;-56
2022/10/14 07:01:33;;;;;;;19.23;9.30;;;13.50;99.90;;;;;;5069184;28;20024;-56
2022/10/14 07:03:59;;;;;;;19.90;9.20;;;13.50;99.90;;;;;;5068919;28;20494;-54
2022/10/14 07:06:24;;;;;;;26.77;11.13;;;13.50;99.90;;;;;;5070716;28;20078;-57
2022/10/14 07:08:50;;;;;;;18.00;10.32;;;13.50;99.90;;;;;;5067382;22;20056;-53
2022/10/14 07:11:16;;;;;;;21.23;9.63;;;13.40;99.90;;;;;;5030171;28;20017;-58
2022/10/14 07:13:41;;;;;;;15.80;9.43;;;13.40;99.90;;;;;;5010265;28;20136;-53
2022/10/14 07:16:07;;;;;;;16.60;9.77;;;13.50;99.90;;;;;;5026747;28;20041;-57
2022/10/14 07:18:32;;;;;;;20.15;10.80;;;13.50;99.90;;;;;;5030757;28;20037;-56
2022/10/14 07:21:05;;;;;;;19.20;10.18;;;13.50;99.90;;;;;;5027679;28;20454;-54
2022/10/14 07:23:31;;;;;;;19.45;10.13;;;13.50;99.90;;;;;;5030937;28;20108;-55
2022/10/14 07:25:58;;;;;;;16.95;10.32;;;13.50;99.90;;;;;;5030891;28;20093;-57
2022/10/14 07:28:24;;;;;;;17.67;10.85;;;13.60;99.90;;;;;;5027555;28;20049;-56
2022/10/14 07:31:16;;;;;;;20.88;10.30;;;13.60;99.90;;;;;;5031597;28;20025;-55
2022/10/14 07:33:42;;;;;;;22.23;9.70;;;13.60;99.90;;;;;;5029172;28;20048;-53
2022/10/14 07:36:12;;;;;;;18.02;9.63;;;13.60;99.90;;;;;;5021127;28;20029;-58
2022/10/14 07:38:39;;;;;;;20.40;10.48;;;13.60;99.90;;;;;;5030768;28;20163;-56
2022/10/14 07:41:15;;;;;;;20.55;9.70;;;13.70;99.90;;;;;;5027689;28;20029;-58
2022/10/14 07:43:40;;;;;;;27.25;10.90;;;13.70;99.90;;;;;;5032192;28;20120;-55
2022/10/14 07:46:07;;;;;;;20.05;11.23;;;13.70;99.90;;;;;;5027531;28;20159;-55
2022/10/14 07:48:33;;;;;;;21.55;10.68;;;13.70;99.90;;;;;;5031976;28;20033;-57
2022/10/14 07:50:59;;;;;;;24.27;10.70;;;13.70;99.90;;;;;;5033723;28;20037;-54
2022/10/14 07:53:26;;;;;;;22.42;10.25;;;13.80;99.90;;;;;;5029188;28;20029;-54
2022/10/14 07:55:52;;;;;;;21.67;11.50;;;13.80;99.90;;;;;;5030650;28;20025;-58
2022/10/14 07:58:22;;;;;;;21.42;10.68;;;13.80;99.90;;;;;;5029912;28;20041;-54
2022/10/14 08:00:53;;;;;;;20.77;10.98;;;13.90;99.90;;;;;;5029163;28;20029;-53
2022/10/14 08:03:20;;;;;;;25.75;11.73;;;13.90;99.90;;;;;;5029422;28;20029;-55
2022/10/14 08:05:47;;;;;;;28.23;11.15;;;14.00;99.90;;;;;;5031169;28;20034;-54
2022/10/14 08:08:13;;;;;;;25.10;11.93;;;14.00;99.90;;;;;;5031489;28;20029;-54
2022/10/14 08:10:40;;;;;;;31.45;11.65;;;14.00;99.90;;;;;;5027936;28;20087;-55
2022/10/14 08:13:06;;;;;;;27.60;11.30;;;14.00;99.90;;;;;;5032030;28;20036;-56
2022/10/14 08:15:40;;;;;;;21.65;11.90;;;14.10;99.90;;;;;;5029048;28;20022;-57
2022/10/14 08:18:07;;;;;;;28.95;13.35;;;14.10;99.90;;;;;;5030709;28;20514;-56
2022/10/14 08:20:34;;;;;;;28.75;13.27;;;14.10;99.90;;;;;;5030238;28;20709;-57
2022/10/14 08:23:00;;;;;;;22.90;12.10;;;14.10;99.90;;;;;;5028579;28;20403;-57
2022/10/14 08:25:26;;;;;;;31.45;12.55;;;14.10;99.90;;;;;;5027733;28;20038;-55
2022/10/14 08:27:53;;;;;;;18.08;11.35;;;14.20;99.90;;;;;;5028451;28;20395;-57
2022/10/14 08:30:19;;;;;;;29.98;12.95;;;14.20;99.90;;;;;;5028978;28;20047;-54
2022/10/14 08:32:45;;;;;;;26.95;12.35;;;14.30;99.90;;;;;;5029114;28;20020;-57
2022/10/14 08:35:11;;;;;;;24.42;11.70;;;14.30;99.90;;;;;;5025684;28;20391;-54
2022/10/14 08:37:37;;;;;;;20.60;11.32;;;14.30;99.90;;;;;;5027749;28;20033;-58
2022/10/14 08:40:04;;;;;;;27.05;11.02;;;14.40;99.90;;;;;;5010207;28;20026;-55
2022/10/14 08:42:49;;;;;;;24.55;11.88;;;14.40;99.90;;;;;;5029893;28;20499;-55
2022/10/14 08:45:25;;;;;;;17.50;10.10;;;14.50;99.90;;;;;;5026222;28;20537;-56
2022/10/14 08:47:54;;;;;;;22.08;11.18;;;14.60;99.90;;;;;;5020943;28;20036;-56
2022/10/14 08:50:30;;;;;;;19.85;10.48;;;14.60;99.90;;;;;;5029338;28;20060;-56
2022/10/14 08:53:13;;;;;;;25.25;12.18;;;14.60;99.90;;;;;;5031397;28;20028;-55
2022/10/14 08:55:50;;;;;;;17.50;10.38;;;14.70;99.90;;;;;;5027359;28;20033;-57
2022/10/14 08:58:32;;;;;;;17.55;8.48;;;14.70;99.90;;;;;;5027985;28;20065;-57
2022/10/14 09:01:11;;;;;;;18.45;10.27;;;14.70;99.90;;;;;;5020322;28;20503;-54
2022/10/14 09:03:37;;;;;;;22.10;9.90;;;14.70;99.90;;;;;;5028661;28;20037;-54
2022/10/14 09:06:13;;;;;;;18.15;9.80;;;14.70;99.90;;;;;;5028853;28;20028;-55
2022/10/14 09:08:42;;;;;;;15.48;9.85;;;14.80;99.90;;;;;;5029010;28;20043;-56
2022/10/14 09:11:13;;;;;;;14.18;7.80;;;14.80;99.90;;;;;;5030884;28;20044;-57
2022/10/14 09:13:41;;;;;;;15.85;9.57;;;14.90;99.90;;;;;;5025112;28;20391;-58
2022/10/14 09:16:19;;;;;;;18.15;9.05;;;14.90;99.90;;;;;;5027523;28;20025;-56
2022/10/14 09:18:53;;;;;;;19.92;8.93;;;14.90;99.90;;;;;;5012836;28;20175;-54
2022/10/14 09:21:25;;;;;;;;;;;15.00;99.90;;;;;;5025933;28;21348;-53
2022/10/14 09:23:57;;;;;;;23.30;9.70;;;15.10;99.90;;;;;;5026450;28;19913;-57
2022/10/14 09:26:27;;;;;;;18.23;8.82;;;15.00;99.90;;;;;;5027270;28;20090;-55
2022/10/14 09:28:53;;;;;;;23.30;9.32;;;15.00;99.90;;;;;;5028229;28;20053;-55
2022/10/14 09:31:19;;;;;;;15.68;8.48;;;15.00;99.90;;;;;;5026918;28;20027;-57
2022/10/14 09:33:45;;;;;;;14.95;8.63;;;15.00;99.90;;;;;;5028343;28;20025;-55
2022/10/14 09:36:17;;;;;;;20.75;8.55;;;15.10;99.90;;;;;;5027335;28;20041;-54
2022/10/14 09:38:47;;;;;;;20.58;8.38;;;15.10;99.90;;;;;;5021847;28;20083;-58
2022/10/14 09:41:14;;;;;;;18.65;8.57;;;15.20;99.90;;;;;;5027356;28;20029;-55
2022/10/14 09:44:18;;;;;;;17.00;7.85;;;15.20;99.90;;;;;;5023293;28;20029;-55
2022/10/14 09:47:01;;;;;;;15.73;7.50;;;15.30;99.90;;;;;;5025533;28;20033;-54
2022/10/14 09:49:47;;;;;;;15.40;7.97;;;15.20;99.90;;;;;;5022650;28;20029;-57
2022/10/14 09:52:24;;;;;;;13.68;7.40;;;15.40;99.90;;;;;;5025293;28;20382;-57
2022/10/14 09:54:55;;;;;;;14.23;8.05;;;15.40;99.90;;;;;;5027219;28;20487;-55
2022/10/14 09:57:22;;;;;;;17.70;7.97;;;15.40;99.90;;;;;;5025977;28;20079;-58
2022/10/14 09:59:59;;;;;;;13.85;7.72;;;15.50;99.90;;;;;;5028358;28;20056;-55
2022/10/14 10:02:40;;;;;;;17.17;8.25;;;15.60;99.90;;;;;;5026299;28;20075;-54
2022/10/14 10:05:33;;;;;;;13.68;8.38;;;15.80;99.90;;;;;;5029521;28;20021;-54
2022/10/14 10:08:13;;;;;;;19.20;7.50;;;15.80;99.90;;;;;;5022999;28;20041;-56
2022/10/14 10:10:40;;;;;;;14.90;8.15;;;15.80;99.90;;;;;;5026928;28;20033;-55
2022/10/14 10:13:43;;;;;;;15.43;7.57;;;15.80;99.90;;;;;;5025284;28;20036;-57
2022/10/14 10:16:20;;;;;;;14.98;8.75;;;15.80;99.90;;;;;;5025350;28;20033;-54
2022/10/14 10:18:47;;;;;;;23.42;8.27;;;15.90;99.90;;;;;;5027795;28;20095;-56
2022/10/14 10:21:23;;;;;;;18.73;7.97;;;15.90;99.90;;;;;;5003452;28;20022;-56
2022/10/14 10:23:52;;;;;;;18.48;8.43;;;15.90;99.90;;;;;;5025348;28;20091;-55
2022/10/14 10:26:24;;;;;;;14.80;7.82;;;15.90;99.90;;;;;;5029391;28;20060;-56
2022/10/14 10:28:50;;;;;;;17.23;8.40;;;15.90;99.90;;;;;;5025579;28;20151;-54
2022/10/14 10:31:29;;;;;;;15.77;7.53;;;15.90;99.90;;;;;;5027055;28;20219;-56
2022/10/14 10:34:11;;;;;;;16.13;8.15;;;15.90;99.90;;;;;;5026093;28;20058;-54
2022/10/14 10:36:46;;;;;;;15.88;6.97;;;16.00;99.90;;;;;;5020066;28;20037;-54
2022/10/14 10:39:45;;;;;;;15.10;8.60;;;15.90;99.90;;;;;;5024236;28;20033;-56
2022/10/14 10:42:24;;;;;;;18.55;8.40;;;16.00;99.90;;;;;;5030351;28;20024;-54
2022/10/14 10:45:05;;;;;;;19.00;8.98;;;15.90;99.90;;;;;;5026995;28;20100;-55
2022/10/14 10:47:44;;;;;;;24.00;9.40;;;15.90;99.90;;;;;;5027174;28;20041;-55
2022/10/14 10:50:17;;;;;;;23.83;9.52;;;15.90;99.90;;;;;;5029099;28;20033;-54
2022/10/14 10:53:02;;;;;;;16.13;8.55;;;15.90;99.90;;;;;;5030802;28;20077;-56
2022/10/14 10:55:57;;;;;;;18.00;8.65;;;16.00;99.90;;;;;;5030907;28;20059;-57
2022/10/14 10:59:00;;;;;;;16.40;8.70;;;16.00;99.90;;;;;;5028801;28;20029;-56
2022/10/14 11:01:52;;;;;;;18.58;9.02;;;15.90;99.90;;;;;;5027371;28;20045;-54
2022/10/14 11:04:45;;;;;;;20.10;9.27;;;15.90;99.90;;;;;;5029112;28;20037;-57
2022/10/14 11:13:16;;;;;;;20.55;10.68;;;15.90;99.90;;;;;;5025478;28;20032;-56
2022/10/14 11:16:22;;;;;;;22.23;10.60;;;15.80;99.90;;;;;;5022729;28;20314;-57
2022/10/14 11:18:53;;;;;;;21.15;10.05;;;15.80;99.90;;;;;;5023267;28;20068;-56
2022/10/14 11:21:41;;;;;;;25.25;11.25;;;15.80;99.90;;;;;;5021838;28;20048;-56
2022/10/14 11:24:11;;;;;;;19.08;10.27;;;15.70;99.90;;;;;;5026811;28;20442;-56
2022/10/14 11:27:07;;;;;;;31.92;11.07;;;15.80;99.90;;;;;;5028453;28;20037;-55
2022/10/14 11:30:02;;;;;;;19.58;10.07;;;15.80;99.90;;;;;;5027486;28;20040;-57
2022/10/14 11:32:38;;;;;;;18.73;10.05;;;15.90;99.90;;;;;;5028277;28;20021;-56
2022/10/14 11:35:09;;;;;;;23.92;11.10;;;15.80;99.90;;;;;;5028242;28;20030;-59
2022/10/14 11:38:01;;;;;;;23.35;11.60;;;15.80;99.90;;;;;;5025827;28;20057;-55
2022/10/14 11:40:33;;;;;;;19.33;11.35;;;15.80;99.90;;;;;;5012841;28;20030;-58
2022/10/14 11:43:05;;;;;;;22.05;11.45;;;15.90;99.90;;;;;;5022860;28;20028;-54
2022/10/14 11:45:49;;;;;;;22.30;11.05;;;15.80;99.90;;;;;;5026871;28;20030;-54
2022/10/14 11:48:33;;;;;;;25.30;11.90;;;15.90;99.90;;;;;;5021648;28;20029;-57
2022/10/14 11:51:08;;;;;;;20.90;11.20;;;15.90;99.90;;;;;;5025690;28;20461;-55
2022/10/14 11:53:55;;;;;;;21.02;11.60;;;15.90;99.90;;;;;;5028371;28;20032;-54
2022/10/14 11:56:51;;;;;;;22.02;11.40;;;15.90;99.90;;;;;;5031171;28;20522;-55
2022/10/14 12:02:53;;;;;;;25.98;12.00;;;16.00;99.90;;;;;;4960275;28;20054;-58
2022/10/14 12:05:27;;;;;;;25.63;11.30;;;16.00;99.90;;;;;;5030543;28;20101;-56
2022/10/14 12:08:11;;;;;;;23.23;12.10;;;15.90;99.90;;;;;;5023519;28;20054;-54
2022/10/14 12:10:46;;;;;;;17.20;10.75;;;15.90;99.90;;;;;;5027866;28;20088;-55
2022/10/14 12:13:15;;;;;;;22.02;11.23;;;15.90;99.90;;;;;;5013408;28;20033;-55
2022/10/14 12:15:47;;;;;;;27.05;11.68;;;15.90;99.90;;;;;;5029666;28;20026;-53
2022/10/14 12:18:13;;;;;;;20.88;11.38;;;15.90;99.90;;;;;;5029866;28;20099;-54
2022/10/14 12:20:46;;;;;;;18.73;11.57;;;15.90;99.90;;;;;;5030580;28;20154;-54
2022/10/14 12:23:18;;;;;;;19.67;11.48;;;15.80;99.90;;;;;;5031606;28;20036;-56
2022/10/14 12:26:23;;;;;;;19.73;11.85;;;15.80;99.90;;;;;;5029459;28;20407;-55
2022/10/14 12:28:50;;;;;;;24.23;11.60;;;15.80;99.90;;;;;;5026944;28;20495;-55
2022/10/14 12:31:20;;;;;;;20.15;10.27;;;15.80;99.90;;;;;;5029781;28;20395;-54
2022/10/14 12:34:14;;;;;;;23.00;11.27;;;15.80;99.90;;;;;;5031425;28;20395;-55
2022/10/14 12:36:42;;;;;;;19.42;11.32;;;15.80;99.90;;;;;;5031303;28;20028;-54
2022/10/14 12:39:17;;;;;;;22.45;12.05;;;15.80;99.90;;;;;;5030108;28;20045;-56
2022/10/14 12:41:57;;;;;;;25.30;12.57;;;15.80;99.90;;;;;;5034674;28;20402;-56
2022/10/14 12:44:42;;;;;;;21.13;10.63;;;15.80;99.90;;;;;;5032324;28;20083;-57
2022/10/14 12:47:18;;;;;;;23.52;10.85;;;15.90;99.90;;;;;;5027074;28;20440;-55
2022/10/14 12:49:51;;;;;;;24.13;12.30;;;15.90;99.90;;;;;;5024927;28;20443;-57
2022/10/14 12:52:25;;;;;;;20.58;11.88;;;15.90;99.90;;;;;;5031545;28;20523;-57
2022/10/14 12:54:52;;;;;;;24.70;10.68;;;15.90;99.90;;;;;;5031477;28;20340;-54
2022/10/14 12:57:28;;;;;;;19.25;11.20;;;15.90;99.90;;;;;;5028476;28;20037;-55
2022/10/14 12:59:56;;;;;;;22.45;10.57;;;16.00;99.90;;;;;;5026555;28;20116;-56